sensor_id;sensor_type;location;lat;lon;timestamp;pressure;altitude;pressure_sealevel;temperature
58102;BMP280;52034;51.926;6.320;2023-12-29T00:00:04;100587.47;;;11.24
58102;BMP280;52034;51.926;6.320;2023-12-29T00:01:06;100598.09;;;11.27
58102;BMP280;52034;51.926;6.320;2023-12-29T00:02:06;100597.31;;;11.25
58102;BMP280;52034;51.926;6.320;2023-12-29T00:03:06;100612.09;;;11.25
58102;BMP280;52034;51.926;6.320;2023-12-29T00:04:07;100605.84;;;11.27
58102;BMP280;52034;51.926;6.320;2023-12-29T00:05:07;100603.69;;;11.25
58102;BMP280;52034;51.926;6.320;2023-12-29T00:06:08;100606.41;;;11.23
58102;BMP280;52034;51.926;6.320;2023-12-29T00:07:08;100598.06;;;11.25
58102;BMP280;52034;51.926;6.320;2023-12-29T00:08:08;100599.44;;;11.24
58102;BMP280;52034;51.926;6.320;2023-12-29T00:09:09;100602.25;;;11.24
58102;BMP280;52034;51.926;6.320;2023-12-29T00:10:09;100589.69;;;11.27
58102;BMP280;52034;51.926;6.320;2023-12-29T00:11:16;100599.56;;;11.28
58102;BMP280;52034;51.926;6.320;2023-12-29T00:12:17;100595.28;;;11.27
58102;BMP280;52034;51.926;6.320;2023-12-29T00:13:17;100601.06;;;11.31
58102;BMP280;52034;51.926;6.320;2023-12-29T00:14:22;100596.94;;;11.34
58102;BMP280;52034;51.926;6.320;2023-12-29T00:15:23;100596.22;;;11.34
58102;BMP280;52034;51.926;6.320;2023-12-29T00:16:23;100594.19;;;11.36
58102;BMP280;52034;51.926;6.320;2023-12-29T00:17:23;100597.00;;;11.36
58102;BMP280;52034;51.926;6.320;2023-12-29T00:18:24;100593.59;;;11.40
58102;BMP280;52034;51.926;6.320;2023-12-29T00:19:25;100594.94;;;11.39
58102;BMP280;52034;51.926;6.320;2023-12-29T00:20:25;100600.56;;;11.39
58102;BMP280;52034;51.926;6.320;2023-12-29T00:21:25;100595.66;;;11.39
58102;BMP280;52034;51.926;6.320;2023-12-29T00:22:26;100594.94;;;11.39
58102;BMP280;52034;51.926;6.320;2023-12-29T00:23:27;100593.59;;;11.40
58102;BMP280;52034;51.926;6.320;2023-12-29T00:24:28;100583.06;;;11.40
58102;BMP280;52034;51.926;6.320;2023-12-29T00:25:29;100585.81;;;11.38
58102;BMP280;52034;51.926;6.320;2023-12-29T00:26:30;100592.13;;;11.39
58102;BMP280;52034;51.926;6.320;2023-12-29T00:27:31;100600.63;;;11.41
58102;BMP280;52034;51.926;6.320;2023-12-29T00:28:31;100589.41;;;11.41
58102;BMP280;52034;51.926;6.320;2023-12-29T00:29:32;100592.94;;;11.41
58102;BMP280;52034;51.926;6.320;2023-12-29T00:30:33;100599.34;;;11.44
58102;BMP280;52034;51.926;6.320;2023-12-29T00:31:34;100602.81;;;11.42
58102;BMP280;52034;51.926;6.320;2023-12-29T00:32:34;100605.53;;;11.40
58102;BMP280;52034;51.926;6.320;2023-12-29T00:33:35;100600.63;;;11.41
58102;BMP280;52034;51.926;6.320;2023-12-29T00:34:36;100620.25;;;11.39
58102;BMP280;52034;51.926;6.320;2023-12-29T00:35:37;100602.63;;;11.36
58102;BMP280;52034;51.926;6.320;2023-12-29T00:36:39;100589.81;;;11.31
58102;BMP280;52034;51.926;6.320;2023-12-29T00:37:39;100591.06;;;11.26
58102;BMP280;52034;51.926;6.320;2023-12-29T00:38:39;100574.09;;;11.22
58102;BMP280;52034;51.926;6.320;2023-12-29T00:39:40;100578.97;;;11.22
58102;BMP280;52034;51.926;6.320;2023-12-29T00:40:40;100582.44;;;11.20
58102;BMP280;52034;51.926;6.320;2023-12-29T00:41:41;100588.78;;;11.21
58102;BMP280;52034;51.926;6.320;2023-12-29T00:42:41;100588.78;;;11.21
58102;BMP280;52034;51.926;6.320;2023-12-29T00:43:42;100576.81;;;11.20
58102;BMP280;52034;51.926;6.320;2023-12-29T00:44:42;100585.19;;;11.18
58102;BMP280;52034;51.926;6.320;2023-12-29T00:45:42;100581.00;;;11.19
58102;BMP280;52034;51.926;6.320;2023-12-29T00:46:43;100579.72;;;11.22
58102;BMP280;52034;51.926;6.320;2023-12-29T00:47:43;100576.75;;;11.18
58102;BMP280;52034;51.926;6.320;2023-12-29T00:48:44;100578.28;;;11.21
58102;BMP280;52034;51.926;6.320;2023-12-29T00:49:44;100582.53;;;11.22
58102;BMP280;52034;51.926;6.320;2023-12-29T00:50:44;100579.09;;;11.26
58102;BMP280;52034;51.926;6.320;2023-12-29T00:51:47;100577.66;;;11.25
58102;BMP280;52034;51.926;6.320;2023-12-29T00:52:48;100569.22;;;11.25
58102;BMP280;52034;51.926;6.320;2023-12-29T00:53:49;100553.16;;;11.27
58102;BMP280;52034;51.926;6.320;2023-12-29T00:54:50;100549.56;;;11.25
58102;BMP280;52034;51.926;6.320;2023-12-29T00:55:50;100569.50;;;11.33
58102;BMP280;52034;51.926;6.320;2023-12-29T00:56:51;100568.75;;;11.32
58102;BMP280;52034;51.926;6.320;2023-12-29T00:57:52;100573.09;;;11.35
58102;BMP280;52034;51.926;6.320;2023-12-29T00:58:52;100558.38;;;11.37
58102;BMP280;52034;51.926;6.320;2023-12-29T00:59:53;100564.66;;;11.35
58102;BMP280;52034;51.926;6.320;2023-12-29T01:00:54;100565.47;;;11.40
58102;BMP280;52034;51.926;6.320;2023-12-29T01:01:55;100554.13;;;11.36
58102;BMP280;52034;51.926;6.320;2023-12-29T01:02:55;100572.47;;;11.39
58102;BMP280;52034;51.926;6.320;2023-12-29T01:03:55;100568.28;;;11.40
58102;BMP280;52034;51.926;6.320;2023-12-29T01:04:56;100564.84;;;11.41
58102;BMP280;52034;51.926;6.320;2023-12-29T01:05:56;100566.91;;;11.41
58102;BMP280;52034;51.926;6.320;2023-12-29T01:06:57;100549.31;;;11.40
58102;BMP280;52034;51.926;6.320;2023-12-29T01:07:57;100563.53;;;11.44
58102;BMP280;52034;51.926;6.320;2023-12-29T01:08:57;100556.41;;;11.41
58102;BMP280;52034;51.926;6.320;2023-12-29T01:09:58;100564.09;;;11.41
58102;BMP280;52034;51.926;6.320;2023-12-29T01:10:59;100568.44;;;11.44
58102;BMP280;52034;51.926;6.320;2023-12-29T01:12:00;100557.91;;;11.44
58102;BMP280;52034;51.926;6.320;2023-12-29T01:13:00;100542.41;;;11.43
58102;BMP280;52034;51.926;6.320;2023-12-29T01:14:00;100566.34;;;11.44
58102;BMP280;52034;51.926;6.320;2023-12-29T01:15:01;100536.72;;;11.41
58102;BMP280;52034;51.926;6.320;2023-12-29T01:16:01;100534.47;;;11.38
58102;BMP280;52034;51.926;6.320;2023-12-29T01:17:03;100559.13;;;11.39
58102;BMP280;52034;51.926;6.320;2023-12-29T01:18:04;100543.59;;;11.36
58102;BMP280;52034;51.926;6.320;2023-12-29T01:19:04;100553.97;;;11.32
58102;BMP280;52034;51.926;6.320;2023-12-29T01:20:05;100553.28;;;11.31
58102;BMP280;52034;51.926;6.320;2023-12-29T01:21:05;100544.78;;;11.29
58102;BMP280;52034;51.926;6.320;2023-12-29T01:22:06;100560.22;;;11.28
58102;BMP280;52034;51.926;6.320;2023-12-29T01:23:06;100553.00;;;11.21
58102;BMP280;52034;51.926;6.320;2023-12-29T01:24:06;100552.81;;;11.15
58102;BMP280;52034;51.926;6.320;2023-12-29T01:25:07;100556.13;;;11.10
58102;BMP280;52034;51.926;6.320;2023-12-29T01:26:08;100545.41;;;11.04
58102;BMP280;52034;51.926;6.320;2023-12-29T01:27:08;100545.06;;;10.94
58102;BMP280;52034;51.926;6.320;2023-12-29T01:28:09;100543.66;;;10.93
58102;BMP280;52034;51.926;6.320;2023-12-29T01:29:09;100539.22;;;10.86
58102;BMP280;52034;51.926;6.320;2023-12-29T01:30:09;100548.22;;;10.83
58102;BMP280;52034;51.926;6.320;2023-12-29T01:31:11;100546.00;;;10.79
58102;BMP280;52034;51.926;6.320;2023-12-29T01:32:14;100530.41;;;10.74
58102;BMP280;52034;51.926;6.320;2023-12-29T01:33:14;100548.75;;;10.77
58102;BMP280;52034;51.926;6.320;2023-12-29T01:34:15;100532.63;;;10.78
58102;BMP280;52034;51.926;6.320;2023-12-29T01:35:15;100531.19;;;10.77
58102;BMP280;52034;51.926;6.320;2023-12-29T01:36:18;100540.25;;;10.75
58102;BMP280;52034;51.926;6.320;2023-12-29T01:37:21;100534.59;;;10.73
58102;BMP280;52034;51.926;6.320;2023-12-29T01:38:22;100539.47;;;10.73
58102;BMP280;52034;51.926;6.320;2023-12-29T01:39:22;100536.66;;;10.73
58102;BMP280;52034;51.926;6.320;2023-12-29T01:40:23;100538.13;;;10.74
58102;BMP280;52034;51.926;6.320;2023-12-29T01:41:23;100535.31;;;10.74
58102;BMP280;52034;51.926;6.320;2023-12-29T01:42:23;100534.47;;;10.69
58102;BMP280;52034;51.926;6.320;2023-12-29T01:43:24;100538.69;;;10.70
58102;BMP280;52034;51.926;6.320;2023-12-29T01:44:25;100540.13;;;10.71
58102;BMP280;52034;51.926;6.320;2023-12-29T01:45:25;100552.72;;;10.70
58102;BMP280;52034;51.926;6.320;2023-12-29T01:46:29;100552.09;;;10.72
58102;BMP280;52034;51.926;6.320;2023-12-29T01:47:30;100542.22;;;10.71
58102;BMP280;52034;51.926;6.320;2023-12-29T01:48:30;100551.44;;;10.73
58102;BMP280;52034;51.926;6.320;2023-12-29T01:49:33;100552.16;;;10.74
58102;BMP280;52034;51.926;6.320;2023-12-29T01:50:34;100559.91;;;10.75
58102;BMP280;52034;51.926;6.320;2023-12-29T01:51:35;100558.59;;;10.78
58102;BMP280;52034;51.926;6.320;2023-12-29T01:52:35;100562.78;;;10.77
58102;BMP280;52034;51.926;6.320;2023-12-29T01:53:36;100559.97;;;10.77
58102;BMP280;52034;51.926;6.320;2023-12-29T01:54:36;100565.66;;;10.79
58102;BMP280;52034;51.926;6.320;2023-12-29T01:55:41;100557.16;;;10.77
58102;BMP280;52034;51.926;6.320;2023-12-29T01:56:41;100557.16;;;10.77
58102;BMP280;52034;51.926;6.320;2023-12-29T01:57:42;100564.81;;;10.75
58102;BMP280;52034;51.926;6.320;2023-12-29T01:58:43;100547.97;;;10.75
58102;BMP280;52034;51.926;6.320;2023-12-29T01:59:45;100562.78;;;10.77
58102;BMP280;52034;51.926;6.320;2023-12-29T02:00:45;100555.66;;;10.74
58102;BMP280;52034;51.926;6.320;2023-12-29T02:01:46;100549.34;;;10.74
58102;BMP280;52034;51.926;6.320;2023-12-29T02:02:47;100552.09;;;10.72
58102;BMP280;52034;51.926;6.320;2023-12-29T02:03:48;100555.63;;;10.72
58102;BMP280;52034;51.926;6.320;2023-12-29T02:04:48;100559.13;;;10.73
58102;BMP280;52034;51.926;6.320;2023-12-29T02:05:49;100559.84;;;10.73
58102;BMP280;52034;51.926;6.320;2023-12-29T02:06:51;100569.00;;;10.74
58102;BMP280;52034;51.926;6.320;2023-12-29T02:07:52;100545.16;;;10.75
58102;BMP280;52034;51.926;6.320;2023-12-29T02:08:53;100552.22;;;10.76
58102;BMP280;52034;51.926;6.320;2023-12-29T02:09:54;100557.25;;;10.79
58102;BMP280;52034;51.926;6.320;2023-12-29T02:10:55;100555.09;;;10.78
58102;BMP280;52034;51.926;6.320;2023-12-29T02:11:55;100553.59;;;10.75
58102;BMP280;52034;51.926;6.320;2023-12-29T02:12:56;100548.75;;;10.77
58102;BMP280;52034;51.926;6.320;2023-12-29T02:13:59;100547.25;;;10.74
58102;BMP280;52034;51.926;6.320;2023-12-29T02:15:00;100531.06;;;10.73
58102;BMP280;52034;51.926;6.320;2023-12-29T02:16:07;100542.41;;;10.77
58102;BMP280;52034;51.926;6.320;2023-12-29T02:17:39;100545.81;;;10.73
58102;BMP280;52034;51.926;6.320;2023-12-29T02:18:43;100554.03;;;10.67
58102;BMP280;52034;51.926;6.320;2023-12-29T02:19:47;100538.50;;;10.64
58102;BMP280;52034;51.926;6.320;2023-12-29T02:20:49;100543.38;;;10.64
58102;BMP280;52034;51.926;6.320;2023-12-29T02:21:50;100544.09;;;10.64
58102;BMP280;52034;51.926;6.320;2023-12-29T02:22:50;100547.66;;;10.65
58102;BMP280;52034;51.926;6.320;2023-12-29T02:23:51;100547.66;;;10.65
58102;BMP280;52034;51.926;6.320;2023-12-29T02:24:51;100554.03;;;10.67
58102;BMP280;52034;51.926;6.320;2023-12-29T02:25:55;100547.00;;;10.66
58102;BMP280;52034;51.926;6.320;2023-12-29T02:28:24;100540.50;;;10.62
58102;BMP280;52034;51.926;6.320;2023-12-29T02:29:26;100539.66;;;10.57
58102;BMP280;52034;51.926;6.320;2023-12-29T02:30:37;100549.59;;;10.60
58102;BMP280;52034;51.926;6.320;2023-12-29T02:31:39;100557.25;;;10.58
58102;BMP280;52034;51.926;6.320;2023-12-29T02:32:43;100540.44;;;10.60
58102;BMP280;52034;51.926;6.320;2023-12-29T02:33:45;100554.50;;;10.60
58102;BMP280;52034;51.926;6.320;2023-12-29T02:34:48;100546.00;;;10.58
58102;BMP280;52034;51.926;6.320;2023-12-29T02:35:52;100549.63;;;10.62
58102;BMP280;52034;51.926;6.320;2023-12-29T02:36:54;100556.75;;;10.65
58102;BMP280;52034;51.926;6.320;2023-12-29T02:37:55;100565.03;;;10.61
58102;BMP280;52034;51.926;6.320;2023-12-29T02:38:57;100552.41;;;10.60
58102;BMP280;52034;51.926;6.320;2023-12-29T02:39:58;100560.69;;;10.56
58102;BMP280;52034;51.926;6.320;2023-12-29T02:40:59;100564.94;;;10.57
58102;BMP280;52034;51.926;6.320;2023-12-29T02:41:59;100544.50;;;10.55
58102;BMP280;52034;51.926;6.320;2023-12-29T02:43:00;100552.13;;;10.52
58102;BMP280;52034;51.926;6.320;2023-12-29T02:44:00;100545.81;;;10.52
58102;BMP280;52034;51.926;6.320;2023-12-29T02:45:01;100549.31;;;10.52
58102;BMP280;52034;51.926;6.320;2023-12-29T02:46:01;100541.50;;;10.49
58102;BMP280;52034;51.926;6.320;2023-12-29T02:47:02;100537.03;;;10.42
58102;BMP280;52034;51.926;6.320;2023-12-29T02:48:04;100539.22;;;10.43
58102;BMP280;52034;51.926;6.320;2023-12-29T02:49:05;100542.78;;;10.46
58102;BMP280;52034;51.926;6.320;2023-12-29T02:50:05;100525.75;;;10.40
58102;BMP280;52034;51.926;6.320;2023-12-29T02:51:05;100528.53;;;10.40
58102;BMP280;52034;51.926;6.320;2023-12-29T02:52:08;100546.09;;;10.40
58102;BMP280;52034;51.926;6.320;2023-12-29T02:53:08;100539.69;;;10.38
58102;BMP280;52034;51.926;6.320;2023-12-29T02:54:09;100528.44;;;10.38
58102;BMP280;52034;51.926;6.320;2023-12-29T02:55:09;100545.25;;;10.36
58102;BMP280;52034;51.926;6.320;2023-12-29T02:56:11;100543.75;;;10.33
58102;BMP280;52034;51.926;6.320;2023-12-29T02:57:11;100536.06;;;10.33
58102;BMP280;52034;51.926;6.320;2023-12-29T02:58:11;100534.03;;;10.36
58102;BMP280;52034;51.926;6.320;2023-12-29T02:59:12;100541.03;;;10.35
58102;BMP280;52034;51.926;6.320;2023-12-29T03:00:13;100537.41;;;10.32
58102;BMP280;52034;51.926;6.320;2023-12-29T03:01:13;100529.72;;;10.33
58102;BMP280;52034;51.926;6.320;2023-12-29T03:02:14;100540.94;;;10.33
58102;BMP280;52034;51.926;6.320;2023-12-29T03:03:14;100532.44;;;10.31
58102;BMP280;52034;51.926;6.320;2023-12-29T03:04:14;100545.75;;;10.30
58102;BMP280;52034;51.926;6.320;2023-12-29T03:05:15;100545.16;;;10.34
58102;BMP280;52034;51.926;6.320;2023-12-29T03:06:16;100539.34;;;10.28
58102;BMP280;52034;51.926;6.320;2023-12-29T03:07:17;100543.09;;;10.34
58102;BMP280;52034;51.926;6.320;2023-12-29T03:08:17;100532.66;;;10.37
58102;BMP280;52034;51.926;6.320;2023-12-29T03:09:18;100538.22;;;10.35
58102;BMP280;52034;51.926;6.320;2023-12-29T03:10:18;100533.31;;;10.35
58102;BMP280;52034;51.926;6.320;2023-12-29T03:11:19;100541.66;;;10.33
58102;BMP280;52034;51.926;6.320;2023-12-29T03:12:19;100533.81;;;10.30
58102;BMP280;52034;51.926;6.320;2023-12-29T03:13:20;100540.16;;;10.30
58102;BMP280;52034;51.926;6.320;2023-12-29T03:14:20;100531.88;;;10.34
58102;BMP280;52034;51.926;6.320;2023-12-29T03:15:20;100528.97;;;10.32
58102;BMP280;52034;51.926;6.320;2023-12-29T03:16:22;100533.94;;;10.34
58102;BMP280;52034;51.926;6.320;2023-12-29T03:17:22;100526.91;;;10.33
58102;BMP280;52034;51.926;6.320;2023-12-29T03:18:22;100524.88;;;10.35
58102;BMP280;52034;51.926;6.320;2023-12-29T03:19:23;100532.59;;;10.35
58102;BMP280;52034;51.926;6.320;2023-12-29T03:20:23;100533.31;;;10.35
58102;BMP280;52034;51.926;6.320;2023-12-29T03:21:24;100531.22;;;10.36
58102;BMP280;52034;51.926;6.320;2023-12-29T03:22:24;100537.59;;;10.38
58102;BMP280;52034;51.926;6.320;2023-12-29T03:23:25;100525.00;;;10.39
58102;BMP280;52034;51.926;6.320;2023-12-29T03:24:26;100523.56;;;10.38
58102;BMP280;52034;51.926;6.320;2023-12-29T03:25:26;100515.88;;;10.39
58102;BMP280;52034;51.926;6.320;2023-12-29T03:26:27;100518.03;;;10.40
58102;BMP280;52034;51.926;6.320;2023-12-29T03:27:27;100523.66;;;10.40
58102;BMP280;52034;51.926;6.320;2023-12-29T03:28:29;100518.69;;;10.39
58102;BMP280;52034;51.926;6.320;2023-12-29T03:29:29;100513.59;;;10.33
58102;BMP280;52034;51.926;6.320;2023-12-29T03:30:30;100513.66;;;10.35
58102;BMP280;52034;51.926;6.320;2023-12-29T03:31:30;100509.53;;;10.38
58102;BMP280;52034;51.926;6.320;2023-12-29T03:32:31;100509.44;;;10.34
58102;BMP280;52034;51.926;6.320;2023-12-29T03:33:31;100515.16;;;10.38
58102;BMP280;52034;51.926;6.320;2023-12-29T03:34:33;100514.38;;;10.36
58102;BMP280;52034;51.926;6.320;2023-12-29T03:35:33;100504.38;;;10.31
58102;BMP280;52034;51.926;6.320;2023-12-29T03:36:33;100515.03;;;10.34
58102;BMP280;52034;51.926;6.320;2023-12-29T03:37:34;100515.75;;;10.35
58102;BMP280;52034;51.926;6.320;2023-12-29T03:38:34;100510.81;;;10.33
58102;BMP280;52034;51.926;6.320;2023-12-29T03:39:36;100519.28;;;10.35
58102;BMP280;52034;51.926;6.320;2023-12-29T03:40:36;100528.53;;;10.40
58102;BMP280;52034;51.926;6.320;2023-12-29T03:41:37;100522.13;;;10.37
58102;BMP280;52034;51.926;6.320;2023-12-29T03:42:39;100512.44;;;10.40
58102;BMP280;52034;51.926;6.320;2023-12-29T03:43:39;100525.09;;;10.41
58102;BMP280;52034;51.926;6.320;2023-12-29T03:44:39;100522.19;;;10.39
58102;BMP280;52034;51.926;6.320;2023-12-29T03:45:40;100518.84;;;10.43
58102;BMP280;52034;51.926;6.320;2023-12-29T03:46:43;100519.59;;;10.45
58102;BMP280;52034;51.926;6.320;2023-12-29T03:47:43;100531.63;;;10.48
58102;BMP280;52034;51.926;6.320;2023-12-29T03:48:44;100518.31;;;10.48
58102;BMP280;52034;51.926;6.320;2023-12-29T03:49:44;100523.28;;;10.50
58102;BMP280;52034;51.926;6.320;2023-12-29T03:50:45;100511.34;;;10.49
58102;BMP280;52034;51.926;6.320;2023-12-29T03:51:45;100520.56;;;10.52
58102;BMP280;52034;51.926;6.320;2023-12-29T03:52:46;100507.88;;;10.51
58102;BMP280;52034;51.926;6.320;2023-12-29T03:53:46;100511.47;;;10.53
58102;BMP280;52034;51.926;6.320;2023-12-29T03:54:47;100517.84;;;10.56
58102;BMP280;52034;51.926;6.320;2023-12-29T03:55:47;100514.41;;;10.57
58102;BMP280;52034;51.926;6.320;2023-12-29T03:56:47;100511.03;;;10.61
58102;BMP280;52034;51.926;6.320;2023-12-29T03:57:48;100506.88;;;10.64
58102;BMP280;52034;51.926;6.320;2023-12-29T03:58:48;100510.22;;;10.58
58102;BMP280;52034;51.926;6.320;2023-12-29T03:59:49;100509.69;;;10.64
58102;BMP280;52034;51.926;6.320;2023-12-29T04:00:49;100517.56;;;10.67
58102;BMP280;52034;51.926;6.320;2023-12-29T04:01:49;100512.66;;;10.68
58102;BMP280;52034;51.926;6.320;2023-12-29T04:02:51;100509.03;;;10.65
58102;BMP280;52034;51.926;6.320;2023-12-29T04:03:51;100516.81;;;10.67
58102;BMP280;52034;51.926;6.320;2023-12-29T04:04:51;100513.50;;;10.72
58102;BMP280;52034;51.926;6.320;2023-12-29T04:05:52;100518.47;;;10.74
58102;BMP280;52034;51.926;6.320;2023-12-29T04:06:52;100495.84;;;10.70
58102;BMP280;52034;51.926;6.320;2023-12-29T04:07:53;100513.56;;;10.74
58102;BMP280;52034;51.926;6.320;2023-12-29T04:08:54;100510.75;;;10.74
58102;BMP280;52034;51.926;6.320;2023-12-29T04:09:54;100513.66;;;10.78
58102;BMP280;52034;51.926;6.320;2023-12-29T04:10:54;100510.22;;;10.80
58102;BMP280;52034;51.926;6.320;2023-12-29T04:11:55;100515.78;;;10.78
58102;BMP280;52034;51.926;6.320;2023-12-29T04:12:55;100509.44;;;10.77
58102;BMP280;52034;51.926;6.320;2023-12-29T04:13:56;100508.06;;;10.78
58102;BMP280;52034;51.926;6.320;2023-12-29T04:14:56;100505.31;;;10.80
58102;BMP280;52034;51.926;6.320;2023-12-29T04:15:57;100512.97;;;10.78
58102;BMP280;52034;51.926;6.320;2023-12-29T04:16:57;100510.84;;;10.78
58102;BMP280;52034;51.926;6.320;2023-12-29T04:17:58;100519.50;;;10.84
58102;BMP280;52034;51.926;6.320;2023-12-29T04:18:58;100508.88;;;10.81
58102;BMP280;52034;51.926;6.320;2023-12-29T04:19:58;100514.41;;;10.79
58102;BMP280;52034;51.926;6.320;2023-12-29T04:21:00;100513.03;;;10.80
58102;BMP280;52034;51.926;6.320;2023-12-29T04:22:00;100511.72;;;10.83
58102;BMP280;52034;51.926;6.320;2023-12-29T04:23:00;100518.72;;;10.82
58102;BMP280;52034;51.926;6.320;2023-12-29T04:24:02;100505.41;;;10.82
58102;BMP280;52034;51.926;6.320;2023-12-29T04:25:03;100519.50;;;10.84
58102;BMP280;52034;51.926;6.320;2023-12-29T04:26:04;100516.69;;;10.84
58102;BMP280;52034;51.926;6.320;2023-12-29T04:27:04;100516.75;;;10.86
58102;BMP280;52034;51.926;6.320;2023-12-29T04:28:06;100512.66;;;10.89
58102;BMP280;52034;51.926;6.320;2023-12-29T04:29:07;100498.47;;;10.85
58102;BMP280;52034;51.926;6.320;2023-12-29T04:30:08;100501.47;;;10.91
58102;BMP280;52034;51.926;6.320;2023-12-29T04:31:09;100500.75;;;10.91
58102;BMP280;52034;51.926;6.320;2023-12-29T04:32:09;100502.19;;;10.92
58102;BMP280;52034;51.926;6.320;2023-12-29T04:33:10;100501.47;;;10.91
58102;BMP280;52034;51.926;6.320;2023-12-29T04:34:10;100499.94;;;10.88
58102;BMP280;52034;51.926;6.320;2023-12-29T04:35:11;100497.13;;;10.88
58102;BMP280;52034;51.926;6.320;2023-12-29T04:36:13;100499.25;;;10.88
58102;BMP280;52034;51.926;6.320;2023-12-29T04:37:13;100505.50;;;10.86
58102;BMP280;52034;51.926;6.320;2023-12-29T04:38:14;100509.66;;;10.83
58102;BMP280;52034;51.926;6.320;2023-12-29T04:39:14;100501.13;;;10.81
58102;BMP280;52034;51.926;6.320;2023-12-29T04:40:15;100499.78;;;10.82
58102;BMP280;52034;51.926;6.320;2023-12-29T04:41:15;100501.22;;;10.83
58102;BMP280;52034;51.926;6.320;2023-12-29T04:42:16;100497.63;;;10.81
58102;BMP280;52034;51.926;6.320;2023-12-29T04:43:18;100498.97;;;10.80
58102;BMP280;52034;51.926;6.320;2023-12-29T04:44:18;100494.75;;;10.79
58102;BMP280;52034;51.926;6.320;2023-12-29T04:45:18;100496.00;;;10.74
58102;BMP280;52034;51.926;6.320;2023-12-29T04:46:19;100498.28;;;10.79
58102;BMP280;52034;51.926;6.320;2023-12-29T04:47:19;100493.25;;;10.76
58102;BMP280;52034;51.926;6.320;2023-12-29T04:48:20;100496.81;;;10.78
58102;BMP280;52034;51.926;6.320;2023-12-29T04:49:20;100504.53;;;10.78
58102;BMP280;52034;51.926;6.320;2023-12-29T04:50:20;100489.13;;;10.79
58102;BMP280;52034;51.926;6.320;2023-12-29T04:51:21;100503.25;;;10.81
58102;BMP280;52034;51.926;6.320;2023-12-29T04:52:21;100507.50;;;10.82
58102;BMP280;52034;51.926;6.320;2023-12-29T04:53:21;100518.78;;;10.84
58102;BMP280;52034;51.926;6.320;2023-12-29T04:54:23;100522.25;;;10.82
58102;BMP280;52034;51.926;6.320;2023-12-29T04:55:23;100520.00;;;10.79
58102;BMP280;52034;51.926;6.320;2023-12-29T04:56:24;100522.16;;;10.80
58102;BMP280;52034;51.926;6.320;2023-12-29T04:57:24;100515.03;;;10.77
58102;BMP280;52034;51.926;6.320;2023-12-29T04:58:24;100508.22;;;10.82
58102;BMP280;52034;51.926;6.320;2023-12-29T04:59:25;100512.44;;;10.83
58102;BMP280;52034;51.926;6.320;2023-12-29T05:00:25;100516.88;;;10.90
58102;BMP280;52034;51.926;6.320;2023-12-29T05:01:25;100513.88;;;10.84
58102;BMP280;52034;51.926;6.320;2023-12-29T05:02:26;100520.34;;;10.89
58102;BMP280;52034;51.926;6.320;2023-12-29T05:03:26;100514.66;;;10.87
58102;BMP280;52034;51.926;6.320;2023-12-29T05:04:26;100516.00;;;10.84
58102;BMP280;52034;51.926;6.320;2023-12-29T05:05:27;100520.28;;;10.87
58102;BMP280;52034;51.926;6.320;2023-12-29T05:06:27;100521.06;;;10.89
58102;BMP280;52034;51.926;6.320;2023-12-29T05:07:28;100518.31;;;10.91
58102;BMP280;52034;51.926;6.320;2023-12-29T05:08:28;100519.78;;;10.92
58102;BMP280;52034;51.926;6.320;2023-12-29T05:09:28;100517.63;;;10.93
58102;BMP280;52034;51.926;6.320;2023-12-29T05:10:29;100515.44;;;10.89
58102;BMP280;52034;51.926;6.320;2023-12-29T05:11:30;100514.16;;;10.92
58102;BMP280;52034;51.926;6.320;2023-12-29T05:12:30;100526.16;;;10.95
58102;BMP280;52034;51.926;6.320;2023-12-29T05:13:31;100533.84;;;10.94
58102;BMP280;52034;51.926;6.320;2023-12-29T05:14:31;100527.53;;;10.94
58102;BMP280;52034;51.926;6.320;2023-12-29T05:15:31;100519.78;;;10.94
58102;BMP280;52034;51.926;6.320;2023-12-29T05:16:32;100521.25;;;10.95
58102;BMP280;52034;51.926;6.320;2023-12-29T05:17:32;100517.81;;;10.97
58102;BMP280;52034;51.926;6.320;2023-12-29T05:18:32;100520.53;;;10.95
58102;BMP280;52034;51.926;6.320;2023-12-29T05:19:33;100509.22;;;10.93
58102;BMP280;52034;51.926;6.320;2023-12-29T05:20:33;100520.00;;;11.00
58102;BMP280;52034;51.926;6.320;2023-12-29T05:21:34;100529.84;;;11.01
58102;BMP280;52034;51.926;6.320;2023-12-29T05:22:34;100525.56;;;10.98
58102;BMP280;52034;51.926;6.320;2023-12-29T05:23:34;100522.03;;;10.98
58102;BMP280;52034;51.926;6.320;2023-12-29T05:24:35;100539.00;;;11.02
58102;BMP280;52034;51.926;6.320;2023-12-29T05:25:35;100538.25;;;10.99
58102;BMP280;52034;51.926;6.320;2023-12-29T05:26:36;100527.53;;;10.94
58102;BMP280;52034;51.926;6.320;2023-12-29T05:27:36;100519.78;;;10.92
58102;BMP280;52034;51.926;6.320;2023-12-29T05:28:37;100524.06;;;10.95
58102;BMP280;52034;51.926;6.320;2023-12-29T05:29:37;100515.63;;;10.95
58102;BMP280;52034;51.926;6.320;2023-12-29T05:30:37;100520.63;;;10.97
58102;BMP280;52034;51.926;6.320;2023-12-29T05:31:38;100527.53;;;10.94
58102;BMP280;52034;51.926;6.320;2023-12-29T05:32:38;100530.28;;;10.92
58102;BMP280;52034;51.926;6.320;2023-12-29T05:33:38;100526.78;;;10.93
58102;BMP280;52034;51.926;6.320;2023-12-29T05:34:39;100535.34;;;10.97
58102;BMP280;52034;51.926;6.320;2023-12-29T05:35:39;100531.94;;;11.01
58102;BMP280;52034;51.926;6.320;2023-12-29T05:36:40;100529.81;;;10.99
58102;BMP280;52034;51.926;6.320;2023-12-29T05:37:41;100535.44;;;10.99
58102;BMP280;52034;51.926;6.320;2023-12-29T05:38:45;100534.00;;;10.98
58102;BMP280;52034;51.926;6.320;2023-12-29T05:39:45;100527.56;;;10.96
58102;BMP280;52034;51.926;6.320;2023-12-29T05:40:46;100517.63;;;10.93
58102;BMP280;52034;51.926;6.320;2023-12-29T05:41:46;100527.53;;;10.94
58102;BMP280;52034;51.926;6.320;2023-12-29T05:42:47;100535.22;;;10.93
58102;BMP280;52034;51.926;6.320;2023-12-29T05:43:47;100535.94;;;10.94
58102;BMP280;52034;51.926;6.320;2023-12-29T05:44:47;100529.56;;;10.91
58102;BMP280;52034;51.926;6.320;2023-12-29T05:45:48;100541.63;;;10.96
58102;BMP280;52034;51.926;6.320;2023-12-29T05:46:48;100542.91;;;10.93